Terminal Aerodrome Forecast
Issued by NWS Albany, NY

Home | Current Version | Previous Version | Text Only | Print | Product List | Glossary On
Versions: 1 2 3 4 5 6 7 8 9 10 11 12 13 14 15
202
FTUS41 KALY 290127 AAA
TAFALB
TAF AMD
KALB 290127Z 2901/2924 02005KT P6SM FEW060 BKN250
     FM290400 VRB03KT P6SM VCSH BKN060 BKN150
     FM290800 VRB02KT 6SM -SHRA BR OVC050
     FM291400 36006KT P6SM VCSH BKN050 OVC150
     FM291900 35007KT P6SM SCT060 BKN200=

USA.gov is the U.S. government's official web portal to all federal, state and local government web resources and services.